createdAt,value
2023-05-21T00:01:25.700Z,2.20
2023-05-21T00:03:53.008Z,2.60
2023-05-21T00:06:21.239Z,2.40
2023-05-21T00:08:48.132Z,2.70
2023-05-21T00:11:15.032Z,2.42
2023-05-21T00:13:42.001Z,2.53
2023-05-21T00:16:11.262Z,3.10
2023-05-21T00:18:39.982Z,2.80
2023-05-21T00:21:06.820Z,2.60
2023-05-21T00:23:34.120Z,2.55
2023-05-21T00:26:01.359Z,2.70
2023-05-21T00:28:28.385Z,2.75
2023-05-21T00:30:55.593Z,2.92
2023-05-21T00:33:22.827Z,3.00
2023-05-21T00:35:49.652Z,2.63
2023-05-21T00:38:18.541Z,3.00
2023-05-21T00:40:45.448Z,2.50
2023-05-21T00:43:14.250Z,3.22
2023-05-21T00:45:46.721Z,2.70
2023-05-21T00:48:14.856Z,2.92
2023-05-21T00:50:42.210Z,2.90
2023-05-21T00:53:11.801Z,3.40
2023-05-21T00:55:38.991Z,2.83
2023-05-21T00:58:07.343Z,3.20
2023-05-21T01:00:35.225Z,3.28
2023-05-21T01:03:02.584Z,2.65
2023-05-21T01:05:30.234Z,2.85
2023-05-21T01:07:58.427Z,3.20
2023-05-21T01:10:26.723Z,2.95
2023-05-21T01:12:57.435Z,3.42
2023-05-21T01:15:24.674Z,3.25
2023-05-21T01:17:51.949Z,2.80
2023-05-21T01:20:20.358Z,2.92
2023-05-21T01:23:14.113Z,2.85
2023-05-21T01:25:42.308Z,3.05
2023-05-21T01:28:18.870Z,2.58
2023-05-21T01:30:46.605Z,3.28
2023-05-21T01:33:28.524Z,3.45
2023-05-21T01:36:08.874Z,3.25
2023-05-21T01:38:45.940Z,3.30
2023-05-21T01:41:15.124Z,3.13
2023-05-21T01:43:44.338Z,3.20
2023-05-21T01:46:15.293Z,3.40
2023-05-21T01:48:43.573Z,3.13
2023-05-21T01:51:10.732Z,4.15
2023-05-21T01:53:40.762Z,3.17
2023-05-21T01:56:08.014Z,3.42
2023-05-21T01:58:34.978Z,3.45
2023-05-21T02:01:03.690Z,3.35
2023-05-21T02:03:31.521Z,3.50
2023-05-21T02:05:58.712Z,3.40
2023-05-21T02:08:27.265Z,4.05
2023-05-21T02:10:54.161Z,3.90
2023-05-21T02:13:23.058Z,3.78
2023-05-21T02:15:54.922Z,4.15
2023-05-21T02:18:22.345Z,3.67
2023-05-21T02:20:49.220Z,3.90
2023-05-21T02:23:16.210Z,4.00
2023-05-21T02:25:43.935Z,3.88
2023-05-21T02:28:14.262Z,3.92
2023-05-21T02:30:41.096Z,3.80
2023-05-21T02:33:09.211Z,3.70
2023-05-21T02:35:36.679Z,3.75
2023-05-21T02:38:03.879Z,4.30
2023-05-21T02:40:30.886Z,3.60
2023-05-21T02:42:57.733Z,4.03
2023-05-21T02:45:24.862Z,4.00
2023-05-21T02:47:51.837Z,4.05
2023-05-21T02:50:18.918Z,4.75
2023-05-21T02:52:50.729Z,4.32
2023-05-21T02:55:17.558Z,3.83
2023-05-21T02:57:44.443Z,4.20
2023-05-21T03:00:11.901Z,4.32
2023-05-21T03:02:39.155Z,4.22
2023-05-21T03:05:06.739Z,4.20
2023-05-21T03:07:33.913Z,4.95
2023-05-21T03:10:00.846Z,4.20
2023-05-21T03:12:27.683Z,4.50
2023-05-21T03:14:56.377Z,5.35
2023-05-21T03:17:23.613Z,4.20
2023-05-21T03:19:50.731Z,3.88
2023-05-21T03:22:26.232Z,4.40
2023-05-21T03:24:53.562Z,4.22
2023-05-21T03:27:20.509Z,4.07
2023-05-21T03:29:47.353Z,4.85
2023-05-21T03:32:14.486Z,3.95
2023-05-21T03:34:41.515Z,5.18
2023-05-21T03:37:08.354Z,4.43
2023-05-21T03:39:35.217Z,4.88
2023-05-21T03:42:03.239Z,5.30
2023-05-21T03:44:51.862Z,5.75
2023-05-21T03:47:18.831Z,4.22
2023-05-21T03:49:45.911Z,5.13
2023-05-21T03:52:12.746Z,4.45
2023-05-21T03:54:39.582Z,4.95
2023-05-21T03:57:06.445Z,5.25
2023-05-21T03:59:33.310Z,4.78
2023-05-21T04:02:00.396Z,5.47
2023-05-21T04:04:29.761Z,4.80
2023-05-21T04:06:56.816Z,5.00
2023-05-21T04:09:23.768Z,5.32
2023-05-21T04:11:50.686Z,5.13
2023-05-21T04:14:17.500Z,5.05
2023-05-21T04:16:44.371Z,4.70
2023-05-21T04:19:11.346Z,5.18
2023-05-21T04:21:38.363Z,4.70
2023-05-21T04:24:05.247Z,4.65
2023-05-21T04:26:34.031Z,5.65
2023-05-21T04:29:03.789Z,4.95
2023-05-21T04:31:32.560Z,5.35
2023-05-21T04:33:59.569Z,4.25
2023-05-21T04:36:29.057Z,4.93
2023-05-21T04:38:56.188Z,4.88
2023-05-21T04:41:23.176Z,4.63
2023-05-21T04:43:54.949Z,4.90
2023-05-21T04:46:25.323Z,5.05
2023-05-21T04:48:55.049Z,4.57
2023-05-21T04:51:26.985Z,4.82
2023-05-21T04:54:03.514Z,4.55
2023-05-21T04:56:30.473Z,5.60
2023-05-21T04:58:58.830Z,5.05
2023-05-21T05:01:27.405Z,4.43
2023-05-21T05:03:54.452Z,4.47
2023-05-21T05:06:22.283Z,5.35
2023-05-21T05:08:49.549Z,4.45
2023-05-21T05:11:20.210Z,4.93
2023-05-21T05:13:47.270Z,4.30
2023-05-21T05:16:19.583Z,5.22
2023-05-21T05:18:46.739Z,5.03
2023-05-21T05:21:13.587Z,4.20
2023-05-21T05:23:40.492Z,4.28
2023-05-21T05:26:07.379Z,4.43
2023-05-21T05:28:34.195Z,4.78
2023-05-21T05:31:01.410Z,4.25
2023-05-21T05:33:28.472Z,4.43
2023-05-21T05:35:55.542Z,4.60
2023-05-21T05:38:22.396Z,3.88
2023-05-21T05:40:49.287Z,4.70
2023-05-21T05:43:16.889Z,3.83
2023-05-21T05:45:43.729Z,4.53
2023-05-21T05:48:10.856Z,3.75
2023-05-21T05:50:42.742Z,4.32
2023-05-21T05:53:09.624Z,4.18
2023-05-21T05:55:36.707Z,3.85
2023-05-21T05:58:03.762Z,3.85
2023-05-21T06:00:30.770Z,3.92
2023-05-21T06:02:57.779Z,4.30
2023-05-21T06:05:24.808Z,3.92
2023-05-21T06:07:51.791Z,3.80
2023-05-21T06:10:20.591Z,3.50
2023-05-21T06:12:47.889Z,3.40
2023-05-21T06:15:19.389Z,3.40
2023-05-21T06:17:46.327Z,2.90
2023-05-21T06:20:13.292Z,3.75
2023-05-21T06:22:40.314Z,3.17
2023-05-21T06:25:08.207Z,4.15
2023-05-21T06:27:35.140Z,3.83
2023-05-21T06:30:02.067Z,3.47
2023-05-21T06:32:29.029Z,4.45
2023-05-21T06:34:55.892Z,3.85
2023-05-21T06:37:25.246Z,3.55
2023-05-21T06:39:53.323Z,4.10
2023-05-21T06:42:20.161Z,3.40
2023-05-21T06:44:47.065Z,3.70
2023-05-21T06:47:13.901Z,3.70
2023-05-21T06:49:40.926Z,3.47
2023-05-21T06:52:07.937Z,3.33
2023-05-21T06:54:34.838Z,4.80
2023-05-21T06:57:01.791Z,3.55
2023-05-21T06:59:28.788Z,3.63
2023-05-21T07:01:55.726Z,3.92
2023-05-21T07:04:22.628Z,3.72
2023-05-21T07:06:49.480Z,3.35
2023-05-21T07:09:18.252Z,4.20
2023-05-21T07:11:45.256Z,3.50
2023-05-21T07:14:12.400Z,3.65
2023-05-21T07:16:39.574Z,4.18
2023-05-21T07:19:06.514Z,3.40
2023-05-21T07:21:33.442Z,3.50
2023-05-21T07:24:00.620Z,3.58
2023-05-21T07:26:27.632Z,3.65
2023-05-21T07:28:54.569Z,3.47
2023-05-21T07:31:21.539Z,3.50
2023-05-21T07:33:48.571Z,3.60
2023-05-21T07:36:15.435Z,4.38
2023-05-21T07:38:44.110Z,5.40
2023-05-21T07:41:11.168Z,3.70
2023-05-21T07:43:38.860Z,3.40
2023-05-21T07:46:05.883Z,3.85
2023-05-21T07:48:34.725Z,3.53
2023-05-21T07:51:03.948Z,3.83
2023-05-21T07:53:32.405Z,4.32
2023-05-21T07:56:00.406Z,3.85
2023-05-21T07:58:27.303Z,3.47
2023-05-21T08:00:54.285Z,3.47
2023-05-21T08:03:21.312Z,4.35
2023-05-21T08:05:49.213Z,3.78
2023-05-21T08:08:17.809Z,4.10
2023-05-21T08:10:45.051Z,3.92
2023-05-21T08:13:12.789Z,4.18
2023-05-21T08:15:39.691Z,3.95
2023-05-21T08:18:06.681Z,3.55
2023-05-21T08:20:33.682Z,3.83
2023-05-21T08:23:00.905Z,4.03
2023-05-21T08:25:27.987Z,3.85
2023-05-21T08:27:55.259Z,4.13
2023-05-21T08:30:22.436Z,3.58
2023-05-21T08:32:49.771Z,3.60
2023-05-21T08:35:16.769Z,3.60
2023-05-21T08:37:43.694Z,4.18
2023-05-21T08:40:12.261Z,4.13
2023-05-21T08:42:47.362Z,4.03
2023-05-21T08:45:16.950Z,4.82
2023-05-21T08:47:44.720Z,4.85
2023-05-21T08:50:14.246Z,4.90
2023-05-21T08:52:41.501Z,4.05
2023-05-21T08:55:09.623Z,4.45
2023-05-21T08:57:38.183Z,4.80
2023-05-21T09:00:07.242Z,4.20
2023-05-21T09:02:35.176Z,5.00
2023-05-21T09:05:03.903Z,4.00
2023-05-21T09:07:34.438Z,3.97
2023-05-21T09:10:11.253Z,4.03
2023-05-21T09:12:38.451Z,4.00
2023-05-21T09:15:05.919Z,4.25
2023-05-21T09:17:33.178Z,4.57
2023-05-21T09:20:17.475Z,4.90
2023-05-21T09:22:46.800Z,4.80
2023-05-21T09:25:16.752Z,6.53
2023-05-21T09:27:44.262Z,5.28
2023-05-21T09:30:13.464Z,5.15
2023-05-21T09:32:41.406Z,5.47
2023-05-21T09:35:10.679Z,5.43
2023-05-21T09:37:43.855Z,5.47
2023-05-21T09:40:15.249Z,5.72
2023-05-21T09:42:45.601Z,4.93
2023-05-21T09:45:13.462Z,5.22
2023-05-21T09:47:44.159Z,5.28
2023-05-21T09:50:12.360Z,5.78
2023-05-21T09:52:41.859Z,6.22
2023-05-21T09:55:13.532Z,6.30
2023-05-21T09:57:44.534Z,5.40
2023-05-21T10:00:18.941Z,5.97
2023-05-21T10:02:47.854Z,6.13
2023-05-21T10:05:16.609Z,5.60
2023-05-21T10:07:49.435Z,5.18
2023-05-21T10:12:46.384Z,6.60
2023-05-21T10:15:20.889Z,6.45
2023-05-21T10:17:49.499Z,7.45
2023-05-21T10:20:17.482Z,7.38
2023-05-21T10:22:45.182Z,7.18
2023-05-21T10:25:13.756Z,8.05
2023-05-21T10:27:42.081Z,7.57
2023-05-21T10:30:10.096Z,8.50
2023-05-21T10:32:40.012Z,7.05
2023-05-21T10:35:08.900Z,7.97
2023-05-21T10:37:36.622Z,8.40
2023-05-21T10:40:04.829Z,8.48
2023-05-21T10:42:31.672Z,8.13
2023-05-21T10:45:12.506Z,8.38
2023-05-21T10:47:48.490Z,8.18
2023-05-21T10:50:27.708Z,10.15
2023-05-21T10:53:25.077Z,9.65
2023-05-21T10:56:03.178Z,9.05
2023-05-21T10:59:04.166Z,9.23
2023-05-21T11:01:35.735Z,9.63
2023-05-21T11:04:03.977Z,9.77
2023-05-21T11:06:31.259Z,9.77
2023-05-21T11:09:03.096Z,9.95
2023-05-21T11:11:52.294Z,10.45
2023-05-21T11:14:39.973Z,10.02
2023-05-21T11:17:09.808Z,10.68
2023-05-21T11:19:39.648Z,10.40
2023-05-21T11:22:21.593Z,10.02
2023-05-21T11:24:50.870Z,10.40
2023-05-21T11:27:41.123Z,10.68
2023-05-21T11:30:17.301Z,10.38
2023-05-21T11:33:12.245Z,11.38
2023-05-21T11:35:45.711Z,11.00
2023-05-21T11:38:12.618Z,10.73
2023-05-21T11:40:56.658Z,10.18
2023-05-21T11:43:23.565Z,10.73
2023-05-21T11:45:52.973Z,10.32
2023-05-21T11:48:26.865Z,10.50
2023-05-21T11:50:54.761Z,10.63
2023-05-21T11:53:21.689Z,10.45
2023-05-21T11:55:48.753Z,10.10
2023-05-21T11:58:19.282Z,11.10
2023-05-21T12:00:46.376Z,13.00
2023-05-21T12:03:14.882Z,10.77
2023-05-21T12:06:05.592Z,10.15
2023-05-21T12:08:32.590Z,10.70
2023-05-21T12:11:00.436Z,9.73
2023-05-21T12:13:28.065Z,10.70
2023-05-21T12:15:55.137Z,11.23
2023-05-21T12:18:22.328Z,11.20
2023-05-21T12:20:51.969Z,10.38
2023-05-21T12:23:26.007Z,10.65
2023-05-21T12:25:53.839Z,11.23
2023-05-21T12:28:26.185Z,12.07
2023-05-21T12:33:22.410Z,10.98
2023-05-21T12:35:51.698Z,11.00
2023-05-21T12:38:18.649Z,10.43
2023-05-21T12:40:45.882Z,11.35
2023-05-21T12:43:13.111Z,10.32
2023-05-21T12:45:40.553Z,11.13
2023-05-21T12:48:07.962Z,11.18
2023-05-21T12:50:35.839Z,11.73
2023-05-21T12:53:03.878Z,11.27
2023-05-21T12:55:31.571Z,10.73
2023-05-21T12:58:06.676Z,10.73
2023-05-21T13:00:34.099Z,10.15
2023-05-21T13:03:13.895Z,9.50
2023-05-21T13:05:41.789Z,10.10
2023-05-21T13:08:10.608Z,10.90
2023-05-21T13:10:37.931Z,10.20
2023-05-21T13:13:07.754Z,8.65
2023-05-21T13:15:34.784Z,10.73
2023-05-21T13:18:02.118Z,12.18
2023-05-21T13:20:29.486Z,10.43
2023-05-21T13:22:56.429Z,9.65
2023-05-21T13:25:27.452Z,11.60
2023-05-21T13:27:54.698Z,12.63
2023-05-21T13:30:22.409Z,12.63
2023-05-21T13:32:49.656Z,11.98
2023-05-21T13:35:17.283Z,10.55
2023-05-21T13:37:44.909Z,10.25
2023-05-21T13:40:15.181Z,9.90
2023-05-21T13:42:44.086Z,9.63
2023-05-21T13:45:13.568Z,10.02
2023-05-21T13:47:41.236Z,10.10
2023-05-21T13:50:09.136Z,10.10
2023-05-21T13:52:36.742Z,10.38
2023-05-21T13:55:03.954Z,9.85
2023-05-21T13:57:31.226Z,9.57
2023-05-21T13:59:59.553Z,9.73
2023-05-21T14:02:26.855Z,9.70
2023-05-21T14:04:54.020Z,9.55
2023-05-21T14:07:22.099Z,10.13
2023-05-21T14:09:49.505Z,11.32
2023-05-21T14:12:17.022Z,11.38
2023-05-21T14:14:44.021Z,11.68
2023-05-21T14:17:11.124Z,10.15
2023-05-21T14:19:38.006Z,11.00
2023-05-21T14:22:05.169Z,11.60
2023-05-21T14:24:32.164Z,11.05
2023-05-21T14:26:59.015Z,11.63
2023-05-21T14:29:25.936Z,13.07
2023-05-21T14:31:52.809Z,11.65
2023-05-21T14:34:19.676Z,10.57
2023-05-21T14:36:46.599Z,11.07
2023-05-21T14:39:13.477Z,11.25
2023-05-21T14:41:40.664Z,10.43
2023-05-21T14:44:08.259Z,11.52
2023-05-21T14:46:35.406Z,11.43
2023-05-21T14:49:03.776Z,10.45
2023-05-21T14:51:31.701Z,10.07
2023-05-21T14:53:59.018Z,10.73
2023-05-21T14:56:27.843Z,9.30
2023-05-21T14:58:55.229Z,10.38
2023-05-21T15:01:22.267Z,11.30
2023-05-21T15:03:49.375Z,9.63
2023-05-21T15:06:16.595Z,9.52
2023-05-21T15:08:43.487Z,10.15
2023-05-21T15:11:10.636Z,10.50
2023-05-21T15:13:38.570Z,10.80
2023-05-21T15:16:06.184Z,11.60
2023-05-21T15:18:33.565Z,10.20
2023-05-21T15:21:00.622Z,9.05
2023-05-21T15:23:27.708Z,9.10
2023-05-21T15:25:54.625Z,12.07
2023-05-21T15:28:22.983Z,13.30
2023-05-21T15:30:50.158Z,10.32
2023-05-21T15:33:17.167Z,11.48
2023-05-21T15:35:44.447Z,13.40
2023-05-21T15:38:11.725Z,12.00
2023-05-21T15:40:41.321Z,9.80
2023-05-21T15:43:08.452Z,13.80
2023-05-21T15:45:35.612Z,11.48
2023-05-21T15:48:02.863Z,11.40
2023-05-21T15:50:29.815Z,11.05
2023-05-21T15:52:56.699Z,10.60
2023-05-21T15:55:23.577Z,10.77
2023-05-21T15:57:50.487Z,11.18
2023-05-21T16:00:17.411Z,10.75
2023-05-21T16:02:44.399Z,11.25
2023-05-21T16:05:11.354Z,11.85
2023-05-21T16:07:38.573Z,10.80
2023-05-21T16:10:06.668Z,10.02
2023-05-21T16:12:33.587Z,10.55
2023-05-21T16:15:00.752Z,9.80
2023-05-21T16:17:27.975Z,10.50
2023-05-21T16:19:55.172Z,13.20
2023-05-21T16:22:23.259Z,10.90
2023-05-21T16:24:50.468Z,11.45
2023-05-21T16:27:17.410Z,12.30
2023-05-21T16:29:45.090Z,10.25
2023-05-21T16:32:13.970Z,11.90
2023-05-21T16:34:41.600Z,12.13
2023-05-21T16:37:09.794Z,11.27
2023-05-21T16:39:37.034Z,10.90
2023-05-21T16:42:04.087Z,10.68
2023-05-21T16:44:32.088Z,11.75
2023-05-21T16:46:59.785Z,11.02
2023-05-21T16:49:27.466Z,12.27
2023-05-21T16:51:54.346Z,12.27
2023-05-21T16:54:21.539Z,13.13
2023-05-21T16:56:48.401Z,11.70
2023-05-21T16:59:15.242Z,12.68
2023-05-21T17:01:43.029Z,11.15
2023-05-21T17:04:10.053Z,12.25
2023-05-21T17:06:37.232Z,12.27
2023-05-21T17:09:04.191Z,14.23
2023-05-21T17:11:31.318Z,13.60
2023-05-21T17:13:58.678Z,13.07
2023-05-21T17:16:27.023Z,13.45
2023-05-21T17:18:53.961Z,11.45
2023-05-21T17:21:20.892Z,13.00
2023-05-21T17:23:47.748Z,15.75
2023-05-21T17:26:14.619Z,12.65
2023-05-21T17:28:41.662Z,13.63
2023-05-21T17:31:09.696Z,14.10
2023-05-21T17:33:37.728Z,12.82
2023-05-21T17:36:05.019Z,12.57
2023-05-21T17:38:31.949Z,13.30
2023-05-21T17:40:59.341Z,13.18
2023-05-21T17:43:27.672Z,14.38
2023-05-21T17:45:54.662Z,14.38
2023-05-21T17:48:21.824Z,13.02
2023-05-21T17:50:48.833Z,13.80
2023-05-21T17:53:16.290Z,14.57
2023-05-21T17:55:43.232Z,13.73
2023-05-21T17:58:10.144Z,12.60
2023-05-21T18:00:37.352Z,12.70
2023-05-21T18:03:04.555Z,15.45
2023-05-21T18:05:31.702Z,14.60
2023-05-21T18:08:01.211Z,14.20
2023-05-21T18:10:28.501Z,12.98
2023-05-21T18:12:55.751Z,15.20
2023-05-21T18:15:22.768Z,13.05
2023-05-21T18:17:49.641Z,14.27
2023-05-21T18:20:16.659Z,13.45
2023-05-21T18:22:44.821Z,14.32
2023-05-21T18:25:11.874Z,14.38
2023-05-21T18:27:38.806Z,13.10
2023-05-21T18:30:06.984Z,12.98
2023-05-21T18:32:34.493Z,13.98
2023-05-21T18:35:01.462Z,14.25
2023-05-21T18:37:29.292Z,30.58
2023-05-21T18:39:56.181Z,14.55
2023-05-21T18:42:23.040Z,14.50
2023-05-21T18:44:53.144Z,14.15
2023-05-21T18:47:20.012Z,14.35
2023-05-21T18:49:47.234Z,13.75
2023-05-21T18:52:14.297Z,13.05
2023-05-21T22:21:47.939Z,20.10
2023-05-21T22:24:31.011Z,20.13
2023-05-21T22:26:59.167Z,19.08
2023-05-21T22:29:26.072Z,20.20
2023-05-21T22:31:53.003Z,19.70
2023-05-21T22:34:20.180Z,21.27
2023-05-21T22:36:47.368Z,22.45
2023-05-21T22:39:14.259Z,21.63
2023-05-21T22:41:41.289Z,21.08
2023-05-21T22:44:08.178Z,20.42
2023-05-21T22:46:35.654Z,20.10
2023-05-21T22:49:03.062Z,19.50
2023-05-21T22:51:34.393Z,19.90
2023-05-21T22:54:01.823Z,20.80
2023-05-21T22:56:28.759Z,19.50
2023-05-21T22:58:56.113Z,20.15
2023-05-21T23:01:23.651Z,20.15
2023-05-21T23:03:51.690Z,19.00
2023-05-21T23:06:18.611Z,19.70
2023-05-21T23:08:45.527Z,20.05
2023-05-21T23:11:12.417Z,19.25
2023-05-21T23:13:39.229Z,18.52
2023-05-21T23:16:07.468Z,20.20
2023-05-21T23:18:35.451Z,18.27
2023-05-21T23:21:02.636Z,18.58
2023-05-21T23:23:29.640Z,18.60
2023-05-21T23:25:57.814Z,19.15
2023-05-21T23:28:25.481Z,18.98
2023-05-21T23:30:52.682Z,18.90
2023-05-21T23:33:19.691Z,19.48
2023-05-21T23:35:46.568Z,19.83
2023-05-21T23:38:13.743Z,20.60
2023-05-21T23:40:40.839Z,18.02
2023-05-21T23:43:08.032Z,19.05
2023-05-21T23:45:35.201Z,20.00
2023-05-21T23:48:02.085Z,19.67
2023-05-21T23:50:29.095Z,20.23
2023-05-21T23:52:56.287Z,19.33
2023-05-21T23:55:23.138Z,20.40
2023-05-21T23:57:49.959Z,20.02
